sensor_id;sensor_type;location;lat;lon;timestamp;P1;durP1;ratioP1;P2;durP2;ratioP2
9968;SDS011;5025;48.890;9.278;2023-02-28T00:00:20;6.40;;;5.53;;
9968;SDS011;5025;48.890;9.278;2023-02-28T00:02:46;6.60;;;5.43;;
9968;SDS011;5025;48.890;9.278;2023-02-28T00:05:12;10.93;;;7.57;;
9968;SDS011;5025;48.890;9.278;2023-02-28T00:07:40;11.40;;;7.83;;
9968;SDS011;5025;48.890;9.278;2023-02-28T00:10:06;9.20;;;7.17;;
9968;SDS011;5025;48.890;9.278;2023-02-28T00:12:34;8.73;;;6.83;;
9968;SDS011;5025;48.890;9.278;2023-02-28T00:15:01;10.07;;;7.40;;
9968;SDS011;5025;48.890;9.278;2023-02-28T00:17:27;8.73;;;6.63;;
9968;SDS011;5025;48.890;9.278;2023-02-28T00:19:52;6.60;;;5.80;;
9968;SDS011;5025;48.890;9.278;2023-02-28T00:22:18;6.17;;;5.53;;
9968;SDS011;5025;48.890;9.278;2023-02-28T00:24:46;5.70;;;5.10;;
9968;SDS011;5025;48.890;9.278;2023-02-28T00:27:12;5.30;;;4.80;;
9968;SDS011;5025;48.890;9.278;2023-02-28T00:29:38;4.27;;;3.90;;
9968;SDS011;5025;48.890;9.278;2023-02-28T00:32:04;3.93;;;3.53;;
9968;SDS011;5025;48.890;9.278;2023-02-28T00:34:30;3.63;;;3.33;;
9968;SDS011;5025;48.890;9.278;2023-02-28T00:36:55;2.97;;;2.77;;
9968;SDS011;5025;48.890;9.278;2023-02-28T00:39:21;2.60;;;2.40;;
9968;SDS011;5025;48.890;9.278;2023-02-28T00:41:46;2.90;;;2.60;;
9968;SDS011;5025;48.890;9.278;2023-02-28T00:44:12;2.90;;;2.70;;
9968;SDS011;5025;48.890;9.278;2023-02-28T00:46:37;3.20;;;3.00;;
9968;SDS011;5025;48.890;9.278;2023-02-28T00:49:03;3.37;;;2.97;;
9968;SDS011;5025;48.890;9.278;2023-02-28T00:51:28;3.50;;;3.20;;
9968;SDS011;5025;48.890;9.278;2023-02-28T00:53:53;4.23;;;3.83;;
9968;SDS011;5025;48.890;9.278;2023-02-28T00:56:19;6.13;;;4.97;;
9968;SDS011;5025;48.890;9.278;2023-02-28T00:58:44;5.40;;;4.90;;
9968;SDS011;5025;48.890;9.278;2023-02-28T01:01:09;5.47;;;4.90;;
9968;SDS011;5025;48.890;9.278;2023-02-28T01:03:35;7.27;;;5.60;;
9968;SDS011;5025;48.890;9.278;2023-02-28T01:06:00;8.53;;;6.53;;
9968;SDS011;5025;48.890;9.278;2023-02-28T01:08:26;7.80;;;5.80;;
9968;SDS011;5025;48.890;9.278;2023-02-28T01:10:52;7.33;;;6.17;;
9968;SDS011;5025;48.890;9.278;2023-02-28T01:13:17;7.53;;;6.03;;
9968;SDS011;5025;48.890;9.278;2023-02-28T01:15:46;6.13;;;5.53;;
9968;SDS011;5025;48.890;9.278;2023-02-28T01:18:16;6.27;;;5.20;;
9968;SDS011;5025;48.890;9.278;2023-02-28T01:20:41;5.97;;;4.93;;
9968;SDS011;5025;48.890;9.278;2023-02-28T01:23:07;6.40;;;5.17;;
9968;SDS011;5025;48.890;9.278;2023-02-28T01:25:34;5.60;;;4.53;;
9968;SDS011;5025;48.890;9.278;2023-02-28T01:28:00;5.23;;;4.10;;
9968;SDS011;5025;48.890;9.278;2023-02-28T01:30:26;4.10;;;3.63;;
9968;SDS011;5025;48.890;9.278;2023-02-28T01:32:51;3.60;;;3.30;;
9968;SDS011;5025;48.890;9.278;2023-02-28T01:35:18;3.57;;;3.23;;
9968;SDS011;5025;48.890;9.278;2023-02-28T01:37:44;3.17;;;2.87;;
9968;SDS011;5025;48.890;9.278;2023-02-28T01:40:09;2.80;;;2.60;;
9968;SDS011;5025;48.890;9.278;2023-02-28T01:42:35;2.83;;;2.63;;
9968;SDS011;5025;48.890;9.278;2023-02-28T01:47:50;2.90;;;2.70;;
9968;SDS011;5025;48.890;9.278;2023-02-28T01:50:20;2.60;;;2.40;;
9968;SDS011;5025;48.890;9.278;2023-02-28T01:52:49;2.50;;;2.30;;
9968;SDS011;5025;48.890;9.278;2023-02-28T01:55:16;2.93;;;2.57;;
9968;SDS011;5025;48.890;9.278;2023-02-28T01:57:47;2.90;;;2.67;;
9968;SDS011;5025;48.890;9.278;2023-02-28T02:00:17;2.67;;;2.47;;
9968;SDS011;5025;48.890;9.278;2023-02-28T02:02:47;2.60;;;2.40;;
9968;SDS011;5025;48.890;9.278;2023-02-28T02:05:17;2.70;;;2.50;;
9968;SDS011;5025;48.890;9.278;2023-02-28T02:07:45;2.60;;;2.40;;
9968;SDS011;5025;48.890;9.278;2023-02-28T02:10:21;2.53;;;2.33;;
9968;SDS011;5025;48.890;9.278;2023-02-28T02:21:02;2.80;;;2.40;;
9968;SDS011;5025;48.890;9.278;2023-02-28T02:23:58;2.63;;;2.43;;
9968;SDS011;5025;48.890;9.278;2023-02-28T02:35:29;2.50;;;2.40;;
9968;SDS011;5025;48.890;9.278;2023-02-28T02:38:06;2.60;;;2.40;;
9968;SDS011;5025;48.890;9.278;2023-02-28T02:40:35;2.73;;;2.53;;
9968;SDS011;5025;48.890;9.278;2023-02-28T02:43:08;2.57;;;2.40;;
9968;SDS011;5025;48.890;9.278;2023-02-28T02:45:48;2.37;;;2.17;;
9968;SDS011;5025;48.890;9.278;2023-02-28T02:48:20;2.63;;;2.17;;
9968;SDS011;5025;48.890;9.278;2023-02-28T02:50:50;2.30;;;2.20;;
9968;SDS011;5025;48.890;9.278;2023-02-28T02:53:21;2.87;;;2.67;;
9968;SDS011;5025;48.890;9.278;2023-02-28T02:55:52;2.93;;;2.73;;
9968;SDS011;5025;48.890;9.278;2023-02-28T02:58:20;3.20;;;2.90;;
9968;SDS011;5025;48.890;9.278;2023-02-28T03:00:53;2.57;;;2.47;;
9968;SDS011;5025;48.890;9.278;2023-02-28T03:03:22;2.90;;;2.70;;
9968;SDS011;5025;48.890;9.278;2023-02-28T03:05:54;3.57;;;2.87;;
9968;SDS011;5025;48.890;9.278;2023-02-28T03:08:24;2.60;;;2.40;;
9968;SDS011;5025;48.890;9.278;2023-02-28T03:10:51;2.63;;;2.50;;
9968;SDS011;5025;48.890;9.278;2023-02-28T03:21:38;3.40;;;3.10;;
9968;SDS011;5025;48.890;9.278;2023-02-28T03:24:10;2.90;;;2.70;;
9968;SDS011;5025;48.890;9.278;2023-02-28T03:26:43;3.00;;;2.77;;
9968;SDS011;5025;48.890;9.278;2023-02-28T03:29:28;2.90;;;2.70;;
9968;SDS011;5025;48.890;9.278;2023-02-28T03:32:03;3.17;;;2.87;;
9968;SDS011;5025;48.890;9.278;2023-02-28T03:34:40;2.50;;;2.37;;
9968;SDS011;5025;48.890;9.278;2023-02-28T03:37:12;2.90;;;2.70;;
9968;SDS011;5025;48.890;9.278;2023-02-28T03:39:47;2.80;;;2.60;;
9968;SDS011;5025;48.890;9.278;2023-02-28T03:42:19;3.10;;;2.77;;
9968;SDS011;5025;48.890;9.278;2023-02-28T03:44:49;2.80;;;2.60;;
9968;SDS011;5025;48.890;9.278;2023-02-28T03:47:21;2.60;;;2.40;;
9968;SDS011;5025;48.890;9.278;2023-02-28T03:50:13;2.73;;;2.63;;
9968;SDS011;5025;48.890;9.278;2023-02-28T03:52:47;2.70;;;2.50;;
9968;SDS011;5025;48.890;9.278;2023-02-28T03:55:28;2.47;;;2.37;;
9968;SDS011;5025;48.890;9.278;2023-02-28T03:58:01;3.03;;;2.83;;
9968;SDS011;5025;48.890;9.278;2023-02-28T04:00:40;2.70;;;2.50;;
9968;SDS011;5025;48.890;9.278;2023-02-28T04:03:12;3.00;;;2.73;;
9968;SDS011;5025;48.890;9.278;2023-02-28T04:05:50;3.57;;;3.27;;
9968;SDS011;5025;48.890;9.278;2023-02-28T04:08:18;3.57;;;3.27;;
9968;SDS011;5025;48.890;9.278;2023-02-28T04:10:44;3.97;;;3.67;;
9968;SDS011;5025;48.890;9.278;2023-02-28T04:13:12;3.13;;;2.93;;
9968;SDS011;5025;48.890;9.278;2023-02-28T04:15:37;3.77;;;3.47;;
9968;SDS011;5025;48.890;9.278;2023-02-28T04:18:02;3.57;;;3.27;;
9968;SDS011;5025;48.890;9.278;2023-02-28T04:20:28;3.13;;;2.93;;
9968;SDS011;5025;48.890;9.278;2023-02-28T04:22:53;3.60;;;3.30;;
9968;SDS011;5025;48.890;9.278;2023-02-28T04:25:18;3.77;;;3.43;;
9968;SDS011;5025;48.890;9.278;2023-02-28T04:27:43;3.80;;;3.50;;
9968;SDS011;5025;48.890;9.278;2023-02-28T04:30:09;3.67;;;3.33;;
9968;SDS011;5025;48.890;9.278;2023-02-28T04:32:35;3.20;;;3.00;;
9968;SDS011;5025;48.890;9.278;2023-02-28T04:35:01;3.50;;;3.20;;
9968;SDS011;5025;48.890;9.278;2023-02-28T04:37:27;3.87;;;3.57;;
9968;SDS011;5025;48.890;9.278;2023-02-28T04:39:53;5.03;;;3.90;;
9968;SDS011;5025;48.890;9.278;2023-02-28T04:42:19;4.00;;;3.60;;
9968;SDS011;5025;48.890;9.278;2023-02-28T04:44:44;3.70;;;3.40;;
9968;SDS011;5025;48.890;9.278;2023-02-28T04:47:10;3.40;;;3.10;;
9968;SDS011;5025;48.890;9.278;2023-02-28T04:49:35;3.70;;;3.40;;
9968;SDS011;5025;48.890;9.278;2023-02-28T04:52:00;5.00;;;4.00;;
9968;SDS011;5025;48.890;9.278;2023-02-28T04:54:25;4.97;;;4.10;;
9968;SDS011;5025;48.890;9.278;2023-02-28T04:56:51;4.23;;;3.83;;
9968;SDS011;5025;48.890;9.278;2023-02-28T04:59:16;5.60;;;4.90;;
9968;SDS011;5025;48.890;9.278;2023-02-28T05:01:44;10.70;;;5.97;;
9968;SDS011;5025;48.890;9.278;2023-02-28T05:04:11;7.40;;;5.20;;
9968;SDS011;5025;48.890;9.278;2023-02-28T05:06:36;8.70;;;5.17;;
9968;SDS011;5025;48.890;9.278;2023-02-28T05:09:01;6.03;;;4.37;;
9968;SDS011;5025;48.890;9.278;2023-02-28T05:11:31;6.73;;;4.70;;
9968;SDS011;5025;48.890;9.278;2023-02-28T05:14:10;5.70;;;4.60;;
9968;SDS011;5025;48.890;9.278;2023-02-28T05:16:37;4.93;;;4.27;;
9968;SDS011;5025;48.890;9.278;2023-02-28T05:19:02;5.93;;;4.43;;
9968;SDS011;5025;48.890;9.278;2023-02-28T05:21:35;4.20;;;3.80;;
9968;SDS011;5025;48.890;9.278;2023-02-28T05:24:04;4.50;;;4.10;;
9968;SDS011;5025;48.890;9.278;2023-02-28T05:26:33;4.70;;;4.10;;
9968;SDS011;5025;48.890;9.278;2023-02-28T05:28:59;5.67;;;5.07;;
9968;SDS011;5025;48.890;9.278;2023-02-28T05:31:25;5.93;;;5.27;;
9968;SDS011;5025;48.890;9.278;2023-02-28T05:33:50;5.93;;;5.00;;
9968;SDS011;5025;48.890;9.278;2023-02-28T05:36:16;5.30;;;4.80;;
9968;SDS011;5025;48.890;9.278;2023-02-28T05:38:41;4.47;;;4.00;;
9968;SDS011;5025;48.890;9.278;2023-02-28T05:41:10;4.80;;;4.30;;
9968;SDS011;5025;48.890;9.278;2023-02-28T05:43:36;4.57;;;4.17;;
9968;SDS011;5025;48.890;9.278;2023-02-28T05:46:03;4.50;;;4.10;;
9968;SDS011;5025;48.890;9.278;2023-02-28T05:48:33;3.50;;;3.30;;
9968;SDS011;5025;48.890;9.278;2023-02-28T05:50:59;4.73;;;4.00;;
9968;SDS011;5025;48.890;9.278;2023-02-28T05:53:25;4.03;;;3.73;;
9968;SDS011;5025;48.890;9.278;2023-02-28T05:55:51;5.20;;;4.10;;
9968;SDS011;5025;48.890;9.278;2023-02-28T05:58:16;4.50;;;4.10;;
9968;SDS011;5025;48.890;9.278;2023-02-28T06:00:42;4.63;;;4.23;;
9968;SDS011;5025;48.890;9.278;2023-02-28T06:03:07;4.70;;;4.30;;
9968;SDS011;5025;48.890;9.278;2023-02-28T06:05:32;4.20;;;3.90;;
9968;SDS011;5025;48.890;9.278;2023-02-28T06:07:58;4.57;;;4.17;;
9968;SDS011;5025;48.890;9.278;2023-02-28T06:10:23;4.23;;;3.93;;
9968;SDS011;5025;48.890;9.278;2023-02-28T06:12:48;4.50;;;4.10;;
9968;SDS011;5025;48.890;9.278;2023-02-28T06:15:15;4.47;;;4.07;;
9968;SDS011;5025;48.890;9.278;2023-02-28T06:17:41;4.57;;;4.17;;
9968;SDS011;5025;48.890;9.278;2023-02-28T06:20:08;4.37;;;4.07;;
9968;SDS011;5025;48.890;9.278;2023-02-28T06:22:35;4.60;;;4.20;;
9968;SDS011;5025;48.890;9.278;2023-02-28T06:25:01;6.70;;;6.00;;
9968;SDS011;5025;48.890;9.278;2023-02-28T06:27:26;8.23;;;6.53;;
9968;SDS011;5025;48.890;9.278;2023-02-28T06:29:53;6.63;;;5.50;;
9968;SDS011;5025;48.890;9.278;2023-02-28T06:32:20;5.90;;;5.40;;
9968;SDS011;5025;48.890;9.278;2023-02-28T06:34:46;5.87;;;5.30;;
9968;SDS011;5025;48.890;9.278;2023-02-28T06:37:11;5.93;;;5.40;;
9968;SDS011;5025;48.890;9.278;2023-02-28T06:39:36;5.70;;;5.20;;
9968;SDS011;5025;48.890;9.278;2023-02-28T06:42:02;6.03;;;5.43;;
9968;SDS011;5025;48.890;9.278;2023-02-28T06:44:28;6.23;;;5.63;;
9968;SDS011;5025;48.890;9.278;2023-02-28T06:46:59;5.87;;;5.30;;
9968;SDS011;5025;48.890;9.278;2023-02-28T06:49:26;6.33;;;5.73;;
9968;SDS011;5025;48.890;9.278;2023-02-28T06:51:52;5.60;;;5.10;;
9968;SDS011;5025;48.890;9.278;2023-02-28T06:54:17;6.30;;;5.70;;
9968;SDS011;5025;48.890;9.278;2023-02-28T06:56:42;7.23;;;5.93;;
9968;SDS011;5025;48.890;9.278;2023-02-28T06:59:07;6.33;;;5.70;;
9968;SDS011;5025;48.890;9.278;2023-02-28T07:01:33;6.23;;;5.63;;
9968;SDS011;5025;48.890;9.278;2023-02-28T07:03:59;5.30;;;4.63;;
9968;SDS011;5025;48.890;9.278;2023-02-28T07:06:25;4.97;;;4.53;;
9968;SDS011;5025;48.890;9.278;2023-02-28T07:08:51;5.63;;;5.07;;
9968;SDS011;5025;48.890;9.278;2023-02-28T07:11:18;6.20;;;5.60;;
9968;SDS011;5025;48.890;9.278;2023-02-28T07:13:44;6.00;;;5.27;;
9968;SDS011;5025;48.890;9.278;2023-02-28T07:16:11;5.93;;;5.20;;
9968;SDS011;5025;48.890;9.278;2023-02-28T07:18:37;5.50;;;5.00;;
9968;SDS011;5025;48.890;9.278;2023-02-28T07:21:03;5.27;;;4.80;;
9968;SDS011;5025;48.890;9.278;2023-02-28T07:23:30;5.70;;;5.10;;
9968;SDS011;5025;48.890;9.278;2023-02-28T07:25:55;6.30;;;5.47;;
9968;SDS011;5025;48.890;9.278;2023-02-28T07:28:21;10.83;;;9.00;;
9968;SDS011;5025;48.890;9.278;2023-02-28T07:30:46;13.03;;;9.57;;
9968;SDS011;5025;48.890;9.278;2023-02-28T07:33:12;10.47;;;8.87;;
9968;SDS011;5025;48.890;9.278;2023-02-28T07:35:38;8.87;;;8.07;;
9968;SDS011;5025;48.890;9.278;2023-02-28T07:38:03;8.13;;;7.33;;
9968;SDS011;5025;48.890;9.278;2023-02-28T07:40:29;7.33;;;6.63;;
9968;SDS011;5025;48.890;9.278;2023-02-28T07:42:55;6.57;;;5.90;;
9968;SDS011;5025;48.890;9.278;2023-02-28T07:45:21;6.37;;;5.77;;
9968;SDS011;5025;48.890;9.278;2023-02-28T07:47:46;5.87;;;5.27;;
9968;SDS011;5025;48.890;9.278;2023-02-28T07:50:13;6.03;;;5.50;;
9968;SDS011;5025;48.890;9.278;2023-02-28T07:52:41;6.00;;;5.40;;
9968;SDS011;5025;48.890;9.278;2023-02-28T07:55:06;7.97;;;5.87;;
9968;SDS011;5025;48.890;9.278;2023-02-28T07:57:34;6.70;;;5.97;;
9968;SDS011;5025;48.890;9.278;2023-02-28T07:59:59;6.60;;;6.00;;
9968;SDS011;5025;48.890;9.278;2023-02-28T08:02:25;5.73;;;5.20;;
9968;SDS011;5025;48.890;9.278;2023-02-28T08:04:50;6.80;;;6.10;;
9968;SDS011;5025;48.890;9.278;2023-02-28T08:07:16;5.63;;;5.13;;
9968;SDS011;5025;48.890;9.278;2023-02-28T08:09:42;5.87;;;5.27;;
9968;SDS011;5025;48.890;9.278;2023-02-28T08:12:09;5.37;;;4.90;;
9968;SDS011;5025;48.890;9.278;2023-02-28T08:14:35;6.03;;;5.43;;
9968;SDS011;5025;48.890;9.278;2023-02-28T08:17:01;5.93;;;5.43;;
9968;SDS011;5025;48.890;9.278;2023-02-28T08:19:27;5.63;;;5.13;;
9968;SDS011;5025;48.890;9.278;2023-02-28T08:21:53;5.63;;;5.13;;
9968;SDS011;5025;48.890;9.278;2023-02-28T08:24:18;6.27;;;5.67;;
9968;SDS011;5025;48.890;9.278;2023-02-28T08:26:43;5.90;;;5.40;;
9968;SDS011;5025;48.890;9.278;2023-02-28T08:29:09;5.87;;;5.30;;
9968;SDS011;5025;48.890;9.278;2023-02-28T08:31:34;5.93;;;5.43;;
9968;SDS011;5025;48.890;9.278;2023-02-28T08:34:00;7.00;;;6.30;;
9968;SDS011;5025;48.890;9.278;2023-02-28T08:36:30;6.70;;;6.10;;
9968;SDS011;5025;48.890;9.278;2023-02-28T08:38:56;6.43;;;5.83;;
9968;SDS011;5025;48.890;9.278;2023-02-28T08:41:22;6.50;;;5.90;;
9968;SDS011;5025;48.890;9.278;2023-02-28T08:43:47;6.93;;;6.27;;
9968;SDS011;5025;48.890;9.278;2023-02-28T08:46:12;8.10;;;7.30;;
9968;SDS011;5025;48.890;9.278;2023-02-28T08:48:39;7.80;;;7.00;;
9968;SDS011;5025;48.890;9.278;2023-02-28T08:51:06;7.17;;;6.47;;
9968;SDS011;5025;48.890;9.278;2023-02-28T08:53:38;7.37;;;6.67;;
9968;SDS011;5025;48.890;9.278;2023-02-28T08:56:05;6.00;;;5.50;;
9968;SDS011;5025;48.890;9.278;2023-02-28T08:58:32;6.80;;;6.20;;
9968;SDS011;5025;48.890;9.278;2023-02-28T09:00:59;6.40;;;5.80;;
9968;SDS011;5025;48.890;9.278;2023-02-28T09:03:24;6.50;;;5.90;;
9968;SDS011;5025;48.890;9.278;2023-02-28T09:08:22;6.17;;;5.67;;
9968;SDS011;5025;48.890;9.278;2023-02-28T09:10:49;6.90;;;6.20;;
9968;SDS011;5025;48.890;9.278;2023-02-28T09:13:14;5.90;;;5.40;;
9968;SDS011;5025;48.890;9.278;2023-02-28T09:15:39;6.00;;;5.50;;
9968;SDS011;5025;48.890;9.278;2023-02-28T09:18:04;7.23;;;6.27;;
9968;SDS011;5025;48.890;9.278;2023-02-28T09:20:30;7.70;;;6.90;;
9968;SDS011;5025;48.890;9.278;2023-02-28T09:22:55;8.47;;;7.57;;
9968;SDS011;5025;48.890;9.278;2023-02-28T09:25:20;10.63;;;9.63;;
9968;SDS011;5025;48.890;9.278;2023-02-28T09:27:46;9.27;;;8.37;;
9968;SDS011;5025;48.890;9.278;2023-02-28T09:30:11;8.33;;;7.57;;
9968;SDS011;5025;48.890;9.278;2023-02-28T09:32:37;8.47;;;7.63;;
9968;SDS011;5025;48.890;9.278;2023-02-28T09:35:03;8.47;;;7.47;;
9968;SDS011;5025;48.890;9.278;2023-02-28T09:37:29;9.40;;;8.23;;
9968;SDS011;5025;48.890;9.278;2023-02-28T09:39:56;8.93;;;7.70;;
9968;SDS011;5025;48.890;9.278;2023-02-28T09:42:22;7.33;;;6.60;;
9968;SDS011;5025;48.890;9.278;2023-02-28T09:44:55;7.90;;;7.10;;
9968;SDS011;5025;48.890;9.278;2023-02-28T09:47:26;8.83;;;7.00;;
9968;SDS011;5025;48.890;9.278;2023-02-28T09:49:58;8.13;;;7.20;;
9968;SDS011;5025;48.890;9.278;2023-02-28T09:52:32;7.23;;;6.63;;
9968;SDS011;5025;48.890;9.278;2023-02-28T09:55:47;7.13;;;6.43;;
9968;SDS011;5025;48.890;9.278;2023-02-28T09:58:03;7.50;;;6.70;;
9968;SDS011;5025;48.890;9.278;2023-02-28T10:00:32;7.70;;;6.90;;
9968;SDS011;5025;48.890;9.278;2023-02-28T10:05:43;6.40;;;5.90;;
9968;SDS011;5025;48.890;9.278;2023-02-28T10:08:19;6.60;;;6.00;;
9968;SDS011;5025;48.890;9.278;2023-02-28T10:10:57;5.97;;;5.47;;
9968;SDS011;5025;48.890;9.278;2023-02-28T10:16:11;7.47;;;6.30;;
9968;SDS011;5025;48.890;9.278;2023-02-28T10:18:48;7.27;;;6.53;;
9968;SDS011;5025;48.890;9.278;2023-02-28T10:21:21;7.33;;;6.63;;
9968;SDS011;5025;48.890;9.278;2023-02-28T10:23:51;8.13;;;7.07;;
9968;SDS011;5025;48.890;9.278;2023-02-28T10:26:20;7.03;;;6.43;;
9968;SDS011;5025;48.890;9.278;2023-02-28T10:28:46;7.17;;;6.57;;
9968;SDS011;5025;48.890;9.278;2023-02-28T10:31:13;8.73;;;7.83;;
9968;SDS011;5025;48.890;9.278;2023-02-28T10:33:42;7.00;;;6.40;;
9968;SDS011;5025;48.890;9.278;2023-02-28T10:36:08;6.60;;;6.00;;
9968;SDS011;5025;48.890;9.278;2023-02-28T10:38:39;7.23;;;6.27;;
9968;SDS011;5025;48.890;9.278;2023-02-28T10:41:09;7.33;;;6.67;;
9968;SDS011;5025;48.890;9.278;2023-02-28T10:43:34;6.50;;;5.97;;
9968;SDS011;5025;48.890;9.278;2023-02-28T10:51:02;6.33;;;5.73;;
9968;SDS011;5025;48.890;9.278;2023-02-28T10:53:33;6.03;;;5.43;;
9968;SDS011;5025;48.890;9.278;2023-02-28T11:03:57;7.50;;;6.80;;
9968;SDS011;5025;48.890;9.278;2023-02-28T11:08:57;6.77;;;6.17;;
9968;SDS011;5025;48.890;9.278;2023-02-28T11:11:25;7.43;;;6.73;;
9968;SDS011;5025;48.890;9.278;2023-02-28T11:13:54;8.17;;;7.20;;
9968;SDS011;5025;48.890;9.278;2023-02-28T11:16:22;7.17;;;6.57;;
9968;SDS011;5025;48.890;9.278;2023-02-28T11:18:57;7.30;;;6.60;;
9968;SDS011;5025;48.890;9.278;2023-02-28T11:21:24;6.93;;;6.30;;
9968;SDS011;5025;48.890;9.278;2023-02-28T11:23:56;6.73;;;6.13;;
9968;SDS011;5025;48.890;9.278;2023-02-28T11:26:46;6.13;;;5.53;;
9968;SDS011;5025;48.890;9.278;2023-02-28T11:29:17;6.97;;;6.37;;
9968;SDS011;5025;48.890;9.278;2023-02-28T11:34:47;7.67;;;6.97;;
9968;SDS011;5025;48.890;9.278;2023-02-28T11:37:27;7.80;;;6.83;;
9968;SDS011;5025;48.890;9.278;2023-02-28T11:39:54;7.30;;;6.60;;
9968;SDS011;5025;48.890;9.278;2023-02-28T11:42:43;7.90;;;7.10;;
9968;SDS011;5025;48.890;9.278;2023-02-28T11:45:32;7.60;;;6.87;;
9968;SDS011;5025;48.890;9.278;2023-02-28T11:48:15;7.63;;;6.93;;
9968;SDS011;5025;48.890;9.278;2023-02-28T11:53:31;8.07;;;6.90;;
9968;SDS011;5025;48.890;9.278;2023-02-28T11:56:09;7.63;;;6.93;;
9968;SDS011;5025;48.890;9.278;2023-02-28T11:58:50;7.77;;;6.97;;
9968;SDS011;5025;48.890;9.278;2023-02-28T12:04:41;6.70;;;6.10;;
9968;SDS011;5025;48.890;9.278;2023-02-28T12:10:25;7.40;;;6.70;;
9968;SDS011;5025;48.890;9.278;2023-02-28T12:15:47;6.53;;;5.93;;
9968;SDS011;5025;48.890;9.278;2023-02-28T12:21:04;6.77;;;6.17;;
9968;SDS011;5025;48.890;9.278;2023-02-28T12:26:22;7.03;;;6.40;;
9968;SDS011;5025;48.890;9.278;2023-02-28T12:29:04;6.57;;;5.97;;
9968;SDS011;5025;48.890;9.278;2023-02-28T12:31:41;6.03;;;5.53;;
9968;SDS011;5025;48.890;9.278;2023-02-28T12:34:16;5.97;;;5.37;;
9968;SDS011;5025;48.890;9.278;2023-02-28T12:36:48;5.83;;;5.33;;
9968;SDS011;5025;48.890;9.278;2023-02-28T12:39:23;6.70;;;6.10;;
9968;SDS011;5025;48.890;9.278;2023-02-28T12:41:54;6.10;;;5.60;;
9968;SDS011;5025;48.890;9.278;2023-02-28T12:44:33;6.23;;;5.73;;
9968;SDS011;5025;48.890;9.278;2023-02-28T12:47:03;5.97;;;5.37;;
9968;SDS011;5025;48.890;9.278;2023-02-28T12:49:31;5.30;;;4.90;;
9968;SDS011;5025;48.890;9.278;2023-02-28T12:52:02;5.73;;;5.23;;
9968;SDS011;5025;48.890;9.278;2023-02-28T12:54:35;5.43;;;5.03;;
9968;SDS011;5025;48.890;9.278;2023-02-28T12:57:11;5.43;;;4.90;;
9968;SDS011;5025;48.890;9.278;2023-02-28T13:00:00;6.00;;;5.47;;
9968;SDS011;5025;48.890;9.278;2023-02-28T13:03:00;4.73;;;4.33;;
9968;SDS011;5025;48.890;9.278;2023-02-28T13:05:49;4.80;;;4.40;;
9968;SDS011;5025;48.890;9.278;2023-02-28T13:11:23;5.67;;;5.10;;
9968;SDS011;5025;48.890;9.278;2023-02-28T13:13:56;5.73;;;5.33;;
9968;SDS011;5025;48.890;9.278;2023-02-28T13:16:23;4.93;;;4.57;;
9968;SDS011;5025;48.890;9.278;2023-02-28T13:18:49;6.10;;;5.60;;
9968;SDS011;5025;48.890;9.278;2023-02-28T13:21:32;5.40;;;4.90;;
9968;SDS011;5025;48.890;9.278;2023-02-28T13:24:08;7.20;;;6.13;;
9968;SDS011;5025;48.890;9.278;2023-02-28T13:34:36;5.73;;;5.23;;
9968;SDS011;5025;48.890;9.278;2023-02-28T13:42:32;5.80;;;5.30;;
9968;SDS011;5025;48.890;9.278;2023-02-28T13:50:27;5.37;;;4.90;;
9968;SDS011;5025;48.890;9.278;2023-02-28T13:58:20;6.57;;;5.97;;
9968;SDS011;5025;48.890;9.278;2023-02-28T14:01:29;5.70;;;5.27;;
9968;SDS011;5025;48.890;9.278;2023-02-28T14:06:54;5.27;;;4.87;;
9968;SDS011;5025;48.890;9.278;2023-02-28T14:09:41;6.37;;;5.87;;
9968;SDS011;5025;48.890;9.278;2023-02-28T14:20:55;6.30;;;5.80;;
9968;SDS011;5025;48.890;9.278;2023-02-28T14:25:55;6.07;;;5.23;;
9968;SDS011;5025;48.890;9.278;2023-02-28T14:28:58;5.60;;;5.10;;
9968;SDS011;5025;48.890;9.278;2023-02-28T14:31:39;5.60;;;5.20;;
9968;SDS011;5025;48.890;9.278;2023-02-28T14:36:37;6.10;;;5.60;;
9968;SDS011;5025;48.890;9.278;2023-02-28T14:39:06;5.87;;;5.37;;
9968;SDS011;5025;48.890;9.278;2023-02-28T14:41:37;5.30;;;4.90;;
9968;SDS011;5025;48.890;9.278;2023-02-28T14:44:14;6.47;;;5.97;;
9968;SDS011;5025;48.890;9.278;2023-02-28T14:46:40;6.40;;;5.90;;
9968;SDS011;5025;48.890;9.278;2023-02-28T14:49:18;6.23;;;5.73;;
9968;SDS011;5025;48.890;9.278;2023-02-28T14:52:00;5.77;;;5.30;;
9968;SDS011;5025;48.890;9.278;2023-02-28T14:54:58;5.87;;;5.37;;
9968;SDS011;5025;48.890;9.278;2023-02-28T14:57:30;5.60;;;5.20;;
9968;SDS011;5025;48.890;9.278;2023-02-28T15:00:02;6.80;;;6.20;;
9968;SDS011;5025;48.890;9.278;2023-02-28T15:02:46;6.33;;;5.83;;
9968;SDS011;5025;48.890;9.278;2023-02-28T15:07:41;6.10;;;5.60;;
9968;SDS011;5025;48.890;9.278;2023-02-28T15:10:21;6.50;;;6.00;;
9968;SDS011;5025;48.890;9.278;2023-02-28T15:12:54;6.97;;;6.37;;
9968;SDS011;5025;48.890;9.278;2023-02-28T15:15:22;6.60;;;6.10;;
9968;SDS011;5025;48.890;9.278;2023-02-28T15:18:17;6.00;;;5.50;;
9968;SDS011;5025;48.890;9.278;2023-02-28T15:20:51;7.23;;;6.53;;
9968;SDS011;5025;48.890;9.278;2023-02-28T15:23:17;6.23;;;5.73;;
9968;SDS011;5025;48.890;9.278;2023-02-28T15:25:45;5.87;;;5.37;;
9968;SDS011;5025;48.890;9.278;2023-02-28T15:28:12;5.97;;;5.47;;
9968;SDS011;5025;48.890;9.278;2023-02-28T15:30:49;5.13;;;4.73;;
9968;SDS011;5025;48.890;9.278;2023-02-28T15:33:24;6.03;;;5.43;;
9968;SDS011;5025;48.890;9.278;2023-02-28T15:38:35;6.27;;;5.67;;
9968;SDS011;5025;48.890;9.278;2023-02-28T15:41:01;6.47;;;5.90;;
9968;SDS011;5025;48.890;9.278;2023-02-28T15:43:30;5.87;;;5.27;;
9968;SDS011;5025;48.890;9.278;2023-02-28T15:46:06;5.93;;;5.43;;
9968;SDS011;5025;48.890;9.278;2023-02-28T15:48:38;5.50;;;5.10;;
9968;SDS011;5025;48.890;9.278;2023-02-28T15:51:14;6.07;;;5.53;;
9968;SDS011;5025;48.890;9.278;2023-02-28T15:53:51;6.30;;;5.80;;
9968;SDS011;5025;48.890;9.278;2023-02-28T15:56:28;5.83;;;5.30;;
9968;SDS011;5025;48.890;9.278;2023-02-28T15:58:56;6.53;;;5.93;;
9968;SDS011;5025;48.890;9.278;2023-02-28T16:03:59;6.60;;;6.10;;
9968;SDS011;5025;48.890;9.278;2023-02-28T16:06:32;6.43;;;5.93;;
9968;SDS011;5025;48.890;9.278;2023-02-28T16:09:12;7.10;;;6.40;;
9968;SDS011;5025;48.890;9.278;2023-02-28T16:11:49;6.60;;;6.00;;
9968;SDS011;5025;48.890;9.278;2023-02-28T16:14:21;6.23;;;5.73;;
9968;SDS011;5025;48.890;9.278;2023-02-28T16:16:49;7.33;;;6.63;;
9968;SDS011;5025;48.890;9.278;2023-02-28T16:19:17;7.00;;;6.37;;
9968;SDS011;5025;48.890;9.278;2023-02-28T16:21:42;5.97;;;5.47;;
9968;SDS011;5025;48.890;9.278;2023-02-28T16:24:08;6.90;;;6.30;;
9968;SDS011;5025;48.890;9.278;2023-02-28T16:26:33;6.37;;;5.87;;
9968;SDS011;5025;48.890;9.278;2023-02-28T16:29:00;6.47;;;5.87;;
9968;SDS011;5025;48.890;9.278;2023-02-28T16:31:27;6.97;;;6.37;;
9968;SDS011;5025;48.890;9.278;2023-02-28T16:33:53;8.53;;;7.73;;
9968;SDS011;5025;48.890;9.278;2023-02-28T16:36:23;7.33;;;6.70;;
9968;SDS011;5025;48.890;9.278;2023-02-28T16:38:51;8.23;;;7.47;;
9968;SDS011;5025;48.890;9.278;2023-02-28T16:41:20;8.00;;;7.27;;
9968;SDS011;5025;48.890;9.278;2023-02-28T16:43:48;9.07;;;7.67;;
9968;SDS011;5025;48.890;9.278;2023-02-28T16:46:17;7.60;;;6.90;;
9968;SDS011;5025;48.890;9.278;2023-02-28T16:48:44;7.03;;;6.43;;
9968;SDS011;5025;48.890;9.278;2023-02-28T16:51:13;7.53;;;6.83;;
9968;SDS011;5025;48.890;9.278;2023-02-28T16:53:40;8.70;;;7.80;;
9968;SDS011;5025;48.890;9.278;2023-02-28T16:56:06;8.77;;;7.63;;
9968;SDS011;5025;48.890;9.278;2023-02-28T16:58:35;7.33;;;6.63;;
9968;SDS011;5025;48.890;9.278;2023-02-28T17:01:01;7.53;;;6.83;;
9968;SDS011;5025;48.890;9.278;2023-02-28T17:03:27;7.27;;;6.67;;
9968;SDS011;5025;48.890;9.278;2023-02-28T17:05:54;8.17;;;7.37;;
9968;SDS011;5025;48.890;9.278;2023-02-28T17:08:19;7.97;;;7.17;;
9968;SDS011;5025;48.890;9.278;2023-02-28T17:10:45;7.53;;;6.80;;
9968;SDS011;5025;48.890;9.278;2023-02-28T17:13:11;7.30;;;6.60;;
9968;SDS011;5025;48.890;9.278;2023-02-28T17:15:36;8.30;;;7.47;;
9968;SDS011;5025;48.890;9.278;2023-02-28T17:18:03;8.87;;;7.97;;
9968;SDS011;5025;48.890;9.278;2023-02-28T17:20:29;8.67;;;7.73;;
9968;SDS011;5025;48.890;9.278;2023-02-28T17:22:55;8.30;;;7.50;;
9968;SDS011;5025;48.890;9.278;2023-02-28T17:25:21;8.27;;;7.47;;
9968;SDS011;5025;48.890;9.278;2023-02-28T17:27:48;8.87;;;8.07;;
9968;SDS011;5025;48.890;9.278;2023-02-28T17:30:21;10.03;;;7.70;;
9968;SDS011;5025;48.890;9.278;2023-02-28T17:32:48;8.93;;;8.03;;